Time;durP1;ratioP1;P1;durP2;ratioP2;P2;SDS_P1;SDS_P2;PMS_P1;PMS_P2;Temp;Humidity;BMP_temperature;BMP_pressure;BME280_temperature;BME280_humidity;BME280_pressure;Samples;Min_cycle;Max_cycle;Signal;HPM_P1;HPM_P2
2023/05/27 00:01:30;;;;;;;10.10;3.60;;;;;;;9.19;74.93;102147.78;5041588;28;20223;-71
2023/05/27 00:03:56;;;;;;;8.03;3.40;;;;;;;9.12;74.58;102158.66;5058186;28;20234;-72
2023/05/27 00:06:23;;;;;;;8.27;3.50;;;;;;;9.07;75.18;102153.44;5051969;28;20213;-72
2023/05/27 00:08:51;;;;;;;9.67;3.57;;;;;;;9.00;74.64;102154.84;5057784;28;20290;-72
2023/05/27 00:11:17;;;;;;;12.30;3.60;;;;;;;8.96;75.28;102151.19;5070033;28;20219;-72
2023/05/27 00:13:43;;;;;;;11.60;3.50;;;;;;;8.90;75.07;102149.66;5058048;28;20217;-72
2023/05/27 00:16:11;;;;;;;7.20;3.67;;;;;;;8.85;75.47;102150.47;5050052;28;20666;-72
2023/05/27 00:18:37;;;;;;;10.60;3.83;;;;;;;8.83;76.65;102149.16;5063672;28;20203;-72
2023/05/27 00:21:04;;;;;;;8.70;3.63;;;;;;;8.76;76.39;102152.09;5056833;28;20211;-72
2023/05/27 00:23:30;;;;;;;8.30;3.40;;;;;;;8.69;76.27;102141.09;5039766;28;20569;-72
2023/05/27 00:25:58;;;;;;;13.33;4.23;;;;;;;8.62;76.09;102150.38;5057599;28;20187;-72
2023/05/27 00:28:28;;;;;;;13.47;4.20;;;;;;;8.55;75.85;102152.53;5057970;28;20194;-72
2023/05/27 00:30:55;;;;;;;10.13;4.07;;;;;;;8.50;76.58;102149.94;5050145;28;20636;-72
2023/05/27 00:33:24;;;;;;;7.10;3.73;;;;;;;8.48;77.43;102152.84;5042648;28;20195;-72
2023/05/27 00:35:51;;;;;;;9.93;3.63;;;;;;;8.41;77.46;102152.34;5056704;28;20258;-72
2023/05/27 00:38:18;;;;;;;10.57;3.97;;;;;;;8.35;76.52;102150.81;5061917;28;20226;-71
2023/05/27 00:40:45;;;;;;;11.10;4.00;;;;;;;8.33;77.64;102162.69;5047450;28;20207;-72
2023/05/27 00:43:13;;;;;;;14.47;4.10;;;;;;;8.31;78.35;102155.03;5056163;28;20617;-72
2023/05/27 00:45:39;;;;;;;6.83;3.90;;;;;;;8.24;78.31;102156.41;5072351;28;20558;-72
2023/05/27 00:48:06;;;;;;;11.67;4.30;;;;;;;8.18;78.02;102162.72;5055453;28;20196;-72
2023/05/27 00:50:32;;;;;;;7.00;3.77;;;;;;;8.17;79.14;102158.50;5039305;28;20207;-72
2023/05/27 00:52:59;;;;;;;10.60;4.03;;;;;;;8.09;78.46;102161.69;5041949;28;20199;-72
2023/05/27 00:55:26;;;;;;;10.33;3.53;;;;;;;8.06;77.78;102162.22;5048840;28;20198;-72
2023/05/27 00:57:53;;;;;;;14.30;3.97;;;;;;;8.02;78.96;102159.34;5057162;28;20500;-72
2023/05/27 01:00:21;;;;;;;10.77;4.40;;;;;;;7.96;79.24;102162.28;5055573;28;20237;-72
2023/05/27 01:02:48;;;;;;;8.10;3.80;;;;;;;7.93;78.93;102162.81;5055776;28;20273;-72
2023/05/27 01:05:17;;;;;;;11.30;3.90;;;;;;;7.91;79.18;102165.72;5055158;28;20226;-72
2023/05/27 01:07:58;;;;;;;9.90;4.03;;;;;;;7.89;79.53;102159.16;5055715;28;20263;-72
2023/05/27 01:10:32;;;;;;;13.27;4.50;;;;;;;7.84;80.52;102161.81;5055207;28;20589;-72
2023/05/27 01:13:01;;;;;;;11.83;3.60;;;;;;;7.79;80.36;102154.72;5044659;28;20207;-71
2023/05/27 01:15:32;;;;;;;8.17;4.23;;;;;;;7.77;79.95;102154.19;5045899;28;20233;-72
2023/05/27 01:18:03;;;;;;;11.10;3.67;;;;;;;7.75;80.43;102166.81;5056155;28;20206;-72
2023/05/27 01:20:30;;;;;;;9.43;3.57;;;;;;;7.72;80.25;102166.59;5055659;28;20336;-71
2023/05/27 01:22:59;;;;;;;8.57;3.70;;;;;;;7.73;81.34;102162.88;5056636;28;20241;-72
2023/05/27 01:25:26;;;;;;;10.73;3.97;;;;;;;7.68;80.85;102153.19;5058614;28;20243;-72
2023/05/27 01:27:52;;;;;;;12.13;4.57;;;;;;;7.67;80.63;102156.06;5057626;28;20193;-72
2023/05/27 01:30:19;;;;;;;8.47;4.07;;;;;;;7.63;80.38;102153.19;5039429;28;20662;-72
2023/05/27 01:32:53;;;;;;;9.63;3.97;;;;;;;7.62;80.66;102153.47;5039577;28;20225;-72
2023/05/27 01:35:24;;;;;;;11.67;3.90;;;;;;;7.59;81.25;102153.97;5055201;28;20293;-72
2023/05/27 01:37:54;;;;;;;6.87;3.50;;;;;;;7.54;80.62;102151.38;5051124;28;20199;-72
2023/05/27 01:40:24;;;;;;;7.90;3.40;;;;;;;7.49;80.59;102146.91;5057455;28;20226;-72
2023/05/27 01:42:51;;;;;;;10.70;4.30;;;;;;;7.42;79.94;102143.78;5055396;28;20215;-72
2023/05/27 01:45:17;;;;;;;6.93;3.83;;;;;;;7.39;79.68;102156.66;5036367;28;20220;-72
2023/05/27 01:47:44;;;;;;;8.07;4.13;;;;;;;7.34;80.74;102148.78;5051293;28;20202;-72
2023/05/27 01:50:11;;;;;;;9.10;3.43;;;;;;;7.33;80.84;102152.47;5038756;28;20686;-72
2023/05/27 01:52:37;;;;;;;12.10;4.13;;;;;;;7.32;81.60;102151.69;5056943;28;20222;-72
2023/05/27 01:55:05;;;;;;;7.10;3.60;;;;;;;7.29;82.04;102149.59;5049703;28;20195;-72
2023/05/27 01:57:33;;;;;;;13.30;3.57;;;;;;;7.26;81.65;102146.69;5054330;28;20207;-72
2023/05/27 01:59:59;;;;;;;12.00;4.07;;;;;;;7.22;82.35;102140.41;5039554;28;20201;-72
2023/05/27 02:02:26;;;;;;;12.50;3.93;;;;;;;7.20;81.58;102145.13;5056461;28;20219;-72
2023/05/27 02:04:52;;;;;;;8.57;4.20;;;;;;;7.15;81.68;102132.78;5057494;28;20278;-72
2023/05/27 02:07:18;;;;;;;7.27;4.03;;;;;;;7.15;82.26;102140.66;5043805;28;20296;-72
2023/05/27 02:09:47;;;;;;;8.63;3.63;;;;;;;7.13;82.99;102142.78;5038411;28;20239;-72
2023/05/27 02:12:14;;;;;;;10.57;4.00;;;;;;;7.11;82.89;102138.84;5037781;28;20312;-72
2023/05/27 02:14:41;;;;;;;10.47;4.23;;;;;;;7.12;83.00;102143.84;5038773;28;20625;-72
2023/05/27 02:17:08;;;;;;;8.50;3.60;;;;;;;7.11;83.49;102141.47;5038466;28;20199;-72
2023/05/27 02:19:34;;;;;;;7.83;3.70;;;;;;;7.11;83.71;102138.84;5040206;28;20261;-72
2023/05/27 02:22:01;;;;;;;13.93;4.23;;;;;;;7.05;83.14;102134.66;5054590;28;20242;-72
2023/05/27 02:24:28;;;;;;;7.77;3.67;;;;;;;7.00;82.61;102139.91;5054147;28;20253;-72
2023/05/27 02:26:54;;;;;;;10.83;3.73;;;;;;;6.97;82.24;102140.41;5038142;28;20257;-72
2023/05/27 02:29:21;;;;;;;7.37;3.87;;;;;;;6.95;82.04;102137.28;5038907;28;20199;-72
2023/05/27 02:31:50;;;;;;;7.30;3.53;;;;;;;6.95;83.01;102139.91;5037660;28;20225;-72
2023/05/27 02:34:17;;;;;;;9.97;4.13;;;;;;;6.94;83.38;102144.34;5048318;28;20238;-72
2023/05/27 02:36:43;;;;;;;8.93;3.90;;;;;;;6.86;83.36;102136.22;5064017;28;20234;-72
2023/05/27 02:39:10;;;;;;;10.10;3.83;;;;;;;6.79;82.53;102136.47;5038569;28;20195;-72
2023/05/27 02:41:37;;;;;;;8.27;3.80;;;;;;;6.76;82.61;102138.84;5046383;28;20231;-72
2023/05/27 02:44:06;;;;;;;9.37;4.07;;;;;;;6.74;82.96;102139.09;5047218;28;20217;-72
2023/05/27 02:46:32;;;;;;;6.33;3.80;;;;;;;6.72;83.18;102133.31;5042598;28;20203;-73
2023/05/27 02:49:00;;;;;;;14.73;3.57;;;;;;;6.71;83.76;102142.25;5044521;28;20200;-72
2023/05/27 02:51:26;;;;;;;9.30;3.90;;;;;;;6.66;83.15;102133.56;5043456;28;20238;-72
2023/05/27 02:53:53;;;;;;;7.67;3.87;;;;;;;6.63;82.61;102142.00;5059563;28;20206;-72
2023/05/27 02:56:19;;;;;;;10.20;3.57;;;;;;;6.63;83.25;102144.63;5038421;28;20245;-72
2023/05/27 02:58:46;;;;;;;9.50;3.67;;;;;;;6.58;83.54;102136.72;5037444;28;20523;-72
2023/05/27 03:01:12;;;;;;;6.83;3.63;;;;;;;6.56;83.60;102133.56;5038158;28;20215;-72
2023/05/27 03:03:38;;;;;;;7.83;3.87;;;;;;;6.53;83.19;102139.34;5039225;28;20199;-72
2023/05/27 03:06:07;;;;;;;12.03;4.20;;;;;;;6.54;83.30;102138.28;5055954;28;20257;-72
2023/05/27 03:08:37;;;;;;;12.63;4.23;;;;;;;6.51;83.63;102142.22;5038145;28;20191;-72
2023/05/27 03:11:03;;;;;;;8.60;3.97;;;;;;;6.46;82.86;102138.78;5039869;28;20215;-72
2023/05/27 03:13:30;;;;;;;8.40;4.23;;;;;;;6.45;83.51;102148.50;5054513;28;20757;-72
2023/05/27 03:15:56;;;;;;;8.33;4.10;;;;;;;6.46;83.66;102146.66;5056430;28;20196;-72
2023/05/27 03:18:23;;;;;;;6.70;3.37;;;;;;;6.41;84.05;102144.81;5057704;28;20199;-72
2023/05/27 03:20:51;;;;;;;8.43;3.93;;;;;;;6.43;84.29;102150.59;5039382;28;20825;-72
2023/05/27 03:23:19;;;;;;;8.83;3.77;;;;;;;6.46;84.55;102150.09;5031324;28;20200;-72
2023/05/27 03:25:46;;;;;;;8.37;4.00;;;;;;;6.45;84.20;102139.84;5042933;28;20211;-72
2023/05/27 03:28:12;;;;;;;7.00;3.70;;;;;;;6.46;84.40;102149.28;5042814;28;20297;-72
2023/05/27 03:30:38;;;;;;;7.67;3.63;;;;;;;6.53;84.68;102147.22;5041453;28;20203;-72
2023/05/27 03:33:05;;;;;;;6.33;4.10;;;;;;;6.54;85.27;102154.03;5041525;28;20199;-72
2023/05/27 03:35:36;;;;;;;8.10;4.07;;;;;;;6.57;84.67;102148.28;5041803;28;20562;-72
2023/05/27 03:38:03;;;;;;;9.63;3.87;;;;;;;6.56;84.21;102152.72;5041685;28;20199;-72
2023/05/27 03:40:30;;;;;;;8.27;4.30;;;;;;;6.58;84.61;102155.88;5059232;28;20196;-72
2023/05/27 03:42:58;;;;;;;7.43;4.73;;;;;;;6.59;84.04;102160.09;5058022;28;20208;-72
2023/05/27 03:45:24;;;;;;;10.30;4.53;;;;;;;6.61;83.71;102158.00;5041306;28;20712;-72
2023/05/27 03:47:52;;;;;;;7.70;4.30;;;;;;;6.67;84.27;102156.16;5040324;28;20203;-72
2023/05/27 03:50:20;;;;;;;10.90;4.10;;;;;;;6.69;84.85;102160.09;5040995;28;20265;-72
2023/05/27 03:52:47;;;;;;;9.30;4.67;;;;;;;6.68;84.52;102163.00;5039119;28;20246;-72
2023/05/27 03:55:13;;;;;;;7.43;4.27;;;;;;;6.70;83.76;102158.25;5057150;28;20195;-72
2023/05/27 03:57:41;;;;;;;6.97;4.60;;;;;;;6.78;84.80;102163.00;5040399;28;20234;-72
2023/05/27 04:00:11;;;;;;;11.30;5.23;;;;;;;6.84;84.89;102167.97;5040360;28;20203;-72
2023/05/27 04:02:48;;;;;;;11.33;4.40;;;;;;;6.94;84.58;102164.59;5057300;28;20787;-72
2023/05/27 04:05:16;;;;;;;12.23;5.23;;;;;;;7.01;85.46;102163.28;5040420;28;20743;-72
2023/05/27 04:07:42;;;;;;;10.00;4.50;;;;;;;7.09;84.43;102165.34;5039925;28;20565;-72
2023/05/27 04:10:10;;;;;;;8.87;4.57;;;;;;;7.18;85.05;102162.97;5039921;28;20253;-73
2023/05/27 04:12:37;;;;;;;9.60;5.20;;;;;;;7.28;84.65;102168.22;5039546;28;20247;-72
2023/05/27 04:15:06;;;;;;;13.13;5.07;;;;;;;7.41;84.86;102170.34;5051444;28;20221;-72
2023/05/27 04:17:32;;;;;;;8.80;4.73;;;;;;;7.51;84.50;102170.31;5057674;28;20668;-72
2023/05/27 04:20:09;;;;;;;6.50;4.43;;;;;;;7.59;84.59;102181.06;5024739;28;20306;-72
2023/05/27 04:22:35;;;;;;;15.60;5.00;;;;;;;7.73;83.71;102176.03;5034837;28;20835;-72
2023/05/27 04:25:02;;;;;;;12.00;4.63;;;;;;;7.80;83.63;102174.69;5039895;28;20203;-73
2023/05/27 04:27:33;;;;;;;12.80;5.50;;;;;;;7.91;83.62;102170.97;5057932;28;20275;-72
2023/05/27 04:30:00;;;;;;;14.07;5.03;;;;;;;7.96;82.63;102175.41;5056746;28;20593;-72
2023/05/27 04:32:28;;;;;;;11.53;5.03;;;;;;;8.07;82.29;102174.34;5038164;28;20226;-72
2023/05/27 04:34:54;;;;;;;12.53;4.97;;;;;;;8.19;82.02;102180.06;5036061;28;20663;-72
2023/05/27 04:37:22;;;;;;;13.87;5.60;;;;;;;8.29;82.39;102172.16;5038081;28;20207;-72
2023/05/27 04:39:49;;;;;;;13.23;5.40;;;;;;;8.37;82.04;102169.75;5039975;28;20202;-71
2023/05/27 04:42:16;;;;;;;12.90;5.53;;;;;;;8.48;81.92;102171.25;5057725;28;20231;-72
2023/05/27 04:44:45;;;;;;;12.57;5.37;;;;;;;8.59;81.28;102175.41;5056885;28;20219;-72
2023/05/27 04:47:16;;;;;;;13.87;5.00;;;;;;;8.71;80.88;102172.44;5024075;28;20203;-72
2023/05/27 04:49:46;;;;;;;11.30;5.37;;;;;;;8.79;80.25;102179.72;5036856;28;20654;-71
2023/05/27 04:52:13;;;;;;;15.43;5.53;;;;;;;8.89;79.53;102180.47;5057906;28;20570;-72
2023/05/27 04:54:39;;;;;;;8.73;4.70;;;;;;;9.00;79.19;102178.56;5041423;28;20321;-72
2023/05/27 04:57:18;;;;;;;11.57;5.23;;;;;;;9.11;79.22;102185.31;5042536;28;20331;-72
2023/05/27 04:59:58;;;;;;;9.03;4.90;;;;;;;9.26;79.29;102179.91;5043621;28;20565;-72
2023/05/27 05:02:33;;;;;;;13.27;5.87;;;;;;;9.35;78.37;102194.84;5042787;28;20215;-72
2023/05/27 05:05:13;;;;;;;10.50;5.37;;;;;;;9.46;76.95;102179.69;5042258;28;20214;-72
2023/05/27 05:07:43;;;;;;;9.83;4.53;;;;;;;9.53;76.44;102188.84;5046906;28;20191;-72
2023/05/27 05:10:12;;;;;;;10.83;5.13;;;;;;;9.63;75.83;102182.69;5037596;28;20245;-70
2023/05/27 05:12:47;;;;;;;14.87;5.87;;;;;;;9.71;75.52;102177.59;5030424;28;20269;-70
2023/05/27 05:15:13;;;;;;;12.77;5.43;;;;;;;9.78;73.86;102180.66;5034185;28;20344;-71
2023/05/27 05:17:40;;;;;;;9.27;5.13;;;;;;;9.88;74.10;102182.44;5033810;28;20290;-70
2023/05/27 05:20:09;;;;;;;12.30;5.63;;;;;;;9.94;73.36;102183.94;5035179;28;20257;-70
2023/05/27 05:22:37;;;;;;;12.13;5.37;;;;;;;10.02;73.00;102178.03;5043029;28;20215;-71
2023/05/27 05:25:05;;;;;;;12.17;4.83;;;;;;;10.12;73.91;102188.47;5030849;28;20300;-72
2023/05/27 05:27:37;;;;;;;9.50;5.40;;;;;;;10.19;72.60;102184.44;5053498;28;20295;-71
2023/05/27 05:30:06;;;;;;;8.40;4.37;;;;;;;10.29;73.00;102186.16;5037029;28;20195;-71
2023/05/27 05:32:32;;;;;;;16.63;5.47;;;;;;;10.39;72.08;102180.72;5046826;28;20564;-70
2023/05/27 05:34:59;;;;;;;7.90;4.63;;;;;;;10.50;71.89;102182.19;5035459;28;20270;-70
2023/05/27 05:37:28;;;;;;;11.87;4.67;;;;;;;10.60;72.50;102185.44;5037389;28;20208;-70
2023/05/27 05:39:56;;;;;;;10.50;5.20;;;;;;;10.70;71.87;102189.78;5043197;28;20305;-70
2023/05/27 05:42:24;;;;;;;10.53;4.30;;;;;;;10.84;70.97;102186.16;5046881;28;20636;-70
2023/05/27 05:44:51;;;;;;;14.10;5.10;;;;;;;10.92;70.35;102193.41;5028899;28;20226;-70
2023/05/27 05:47:18;;;;;;;7.77;4.17;;;;;;;11.03;70.71;102192.19;5028610;28;20210;-70
2023/05/27 05:49:52;;;;;;;7.03;4.10;;;;;;;11.17;70.49;102184.28;5033363;28;20283;-71
2023/05/27 05:52:18;;;;;;;12.63;4.50;;;;;;;11.28;69.86;102186.47;5045934;28;20222;-70
2023/05/27 05:54:47;;;;;;;8.27;3.77;;;;;;;11.43;69.41;102196.78;5029166;28;20196;-70
2023/05/27 05:57:14;;;;;;;9.07;3.83;;;;;;;11.53;69.39;102193.97;5029052;28;20279;-71
2023/05/27 05:59:40;;;;;;;13.60;3.73;;;;;;;11.68;69.21;102193.72;5036174;28;20249;-70
2023/05/27 06:02:10;;;;;;;10.60;3.50;;;;;;;11.82;67.52;102196.38;5031759;28;20759;-70
2023/05/27 06:04:36;;;;;;;10.30;4.17;;;;;;;11.95;68.32;102203.53;5043269;28;20227;-71
2023/05/27 06:07:03;;;;;;;10.07;3.37;;;;;;;12.08;67.74;102200.09;5030270;28;20202;-70
2023/05/27 06:10:00;;;;;;;8.97;3.43;;;;;;;12.22;66.16;102201.63;5023788;28;20436;-71
2023/05/27 06:12:35;;;;;;;7.87;3.27;;;;;;;12.35;65.01;102195.53;5026824;28;20305;-71
2023/05/27 06:15:02;;;;;;;7.47;3.47;;;;;;;12.47;64.49;102201.09;5036597;28;20214;-72
2023/05/27 06:17:35;;;;;;;5.63;2.87;;;;;;;12.58;64.41;102207.72;5035150;28;20199;-71
2023/05/27 06:20:02;;;;;;;8.73;3.20;;;;;;;12.68;63.92;102199.56;5043192;28;20229;-72
2023/05/27 06:22:29;;;;;;;9.13;2.90;;;;;;;12.80;64.14;102213.09;5033009;28;20287;-70
2023/05/27 06:25:17;;;;;;;10.47;3.10;;;;;;;12.92;62.42;102212.53;5034592;28;20218;-71
2023/05/27 06:27:52;;;;;;;9.77;2.73;;;;;;;13.03;63.75;102201.41;5029815;28;20204;-71
2023/05/27 06:30:19;;;;;;;9.63;2.70;;;;;;;13.14;63.15;102202.72;5037062;28;20300;-71
2023/05/27 06:32:47;;;;;;;9.50;3.03;;;;;;;13.24;62.18;102199.06;5052616;28;20225;-71
2023/05/27 06:35:14;;;;;;;8.80;2.67;;;;;;;13.35;62.05;102201.13;5002481;28;978667;-71
2023/05/27 06:37:40;;;;;;;12.70;3.37;;;;;;;13.45;61.21;102208.84;5032345;28;20192;-71
2023/05/27 06:40:08;;;;;;;7.90;2.73;;;;;;;13.54;61.74;102207.00;5031314;28;20229;-71
2023/05/27 06:42:37;;;;;;;8.97;2.87;;;;;;;13.62;61.08;102208.91;5033903;28;20215;-70
2023/05/27 06:45:12;;;;;;;6.47;2.60;;;;;;;13.72;61.90;102208.63;5026460;28;20216;-71
2023/05/27 06:47:39;;;;;;;9.77;2.73;;;;;;;13.79;59.39;102210.84;5030422;28;20201;-70
2023/05/27 06:50:06;;;;;;;6.97;2.77;;;;;;;13.87;59.92;102205.56;5040331;28;20247;-71
2023/05/27 06:52:33;;;;;;;8.77;3.20;;;;;;;13.93;60.14;102208.88;5045005;28;20221;-70
2023/05/27 06:55:19;;;;;;;7.43;2.63;;;;;;;13.97;59.32;102207.19;5045076;28;20280;-72
2023/05/27 06:58:05;;;;;;;7.37;2.50;;;;;;;14.03;60.40;102203.28;5046253;28;20202;-72
2023/05/27 07:00:48;;;;;;;8.20;2.87;;;;;;;14.11;59.34;102203.31;5045401;28;20719;-71
2023/05/27 07:03:30;;;;;;;7.40;2.13;;;;;;;14.21;59.81;102208.34;5047515;28;20193;-71
2023/05/27 07:05:57;;;;;;;11.17;2.43;;;;;;;14.29;58.50;102198.84;5051585;28;20228;-70
2023/05/27 07:08:25;;;;;;;10.37;2.60;;;;;;;14.37;57.91;102204.16;5030448;28;20609;-71
2023/05/27 07:11:05;;;;;;;6.90;2.70;;;;;;;14.45;57.31;102194.63;5031240;28;20299;-71
2023/05/27 07:13:33;;;;;;;8.83;2.30;;;;;;;14.54;58.21;102196.19;5033407;28;20202;-71
2023/05/27 07:16:00;;;;;;;11.27;2.77;;;;;;;14.62;58.27;102200.75;5030666;28;20206;-71
2023/05/27 07:18:27;;;;;;;5.83;2.20;;;;;;;14.69;57.61;102198.38;5047602;28;20206;-71
2023/05/27 07:20:57;;;;;;;8.10;2.63;;;;;;;14.75;57.75;102199.03;5048485;28;20215;-72
2023/05/27 07:23:23;;;;;;;9.83;2.67;;;;;;;14.81;55.81;102195.09;5024790;28;20568;-71
2023/05/27 07:25:59;;;;;;;8.47;3.03;;;;;;;14.90;57.61;102193.97;5031547;28;20221;-71
2023/05/27 07:28:26;;;;;;;10.33;2.83;;;;;;;14.97;57.55;102194.31;5030939;28;20856;-71
2023/05/27 07:31:01;;;;;;;5.63;2.43;;;;;;;15.06;55.17;102196.94;5030186;28;20702;-71
2023/05/27 07:33:34;;;;;;;6.10;2.10;;;;;;;15.13;56.12;102192.72;5028020;28;20192;-71
2023/05/27 07:36:00;;;;;;;5.10;1.87;;;;;;;15.23;55.08;102194.25;5046466;28;20199;-71
2023/05/27 07:38:27;;;;;;;8.40;2.20;;;;;;;15.26;53.92;102194.38;5027636;28;20262;-71
2023/05/27 07:40:53;;;;;;;5.63;1.70;;;;;;;15.32;54.27;102193.09;5031693;28;20311;-70
2023/05/27 07:43:19;;;;;;;7.43;1.73;;;;;;;15.39;55.55;102184.66;5046855;28;20669;-71
2023/05/27 07:45:46;;;;;;;4.70;1.43;;;;;;;15.42;52.04;102184.81;5025887;28;20657;-71
2023/05/27 07:48:14;;;;;;;6.40;1.83;;;;;;;15.46;51.67;102185.75;5029689;28;20203;-71
2023/05/27 07:50:40;;;;;;;6.50;1.93;;;;;;;15.49;54.05;102182.47;5031651;28;20273;-70
2023/05/27 07:53:14;;;;;;;6.40;2.23;;;;;;;15.57;53.67;102180.88;5027654;28;20220;-71
2023/05/27 07:55:41;;;;;;;6.93;1.97;;;;;;;15.61;52.62;102179.88;5024543;28;20715;-71
2023/05/27 07:58:07;;;;;;;5.03;2.30;;;;;;;15.65;53.61;102180.81;5044940;28;20200;-70
2023/05/27 08:00:47;;;;;;;8.53;3.30;;;;;;;15.71;52.84;102176.88;5030112;28;20565;-70
2023/05/27 08:03:15;;;;;;;6.07;2.30;;;;;;;15.78;52.71;102174.47;5028007;28;20236;-70
2023/05/27 08:06:03;;;;;;;6.07;1.63;;;;;;;15.89;50.34;102167.66;5045556;28;20237;-70
2023/05/27 08:08:48;;;;;;;4.13;1.90;;;;;;;15.97;51.24;102164.19;5065485;28;20199;-72
2023/05/27 08:11:33;;;;;;;5.10;1.77;;;;;;;16.07;49.96;102165.69;5068664;28;20242;-71
2023/05/27 08:14:24;;;;;;;6.03;1.73;;;;;;;16.10;51.62;102163.16;5036045;28;20202;-70
2023/05/27 08:17:23;;;;;;;4.23;1.90;;;;;;;16.16;48.37;102153.09;5003991;28;20558;-71
2023/05/27 08:20:09;;;;;;;6.87;1.80;;;;;;;16.21;49.12;102142.25;5050858;28;20290;-70
2023/05/27 08:22:59;;;;;;;5.93;1.90;;;;;;;16.28;50.23;102156.63;5042881;28;20290;-71
2023/05/27 08:25:44;;;;;;;5.23;1.73;;;;;;;16.38;48.45;102155.44;5048727;28;20232;-71
2023/05/27 08:28:16;;;;;;;8.00;1.77;;;;;;;16.41;47.87;102147.59;5048412;28;20231;-70
2023/05/27 08:31:01;;;;;;;7.77;3.00;;;;;;;16.49;49.72;102148.63;5043449;28;20761;-70
2023/05/27 08:33:36;;;;;;;7.00;2.00;;;;;;;16.55;47.87;102150.00;5026775;28;20569;-71
2023/05/27 08:36:06;;;;;;;6.57;2.00;;;;;;;16.53;46.75;102144.19;5026162;28;20208;-71
2023/05/27 08:38:32;;;;;;;4.13;1.83;;;;;;;16.58;48.27;102139.47;5031170;28;20257;-71
2023/05/27 08:41:21;;;;;;;5.47;1.63;;;;;;;16.62;46.06;102135.00;5031749;28;20315;-71
2023/05/27 08:43:48;;;;;;;7.67;1.83;;;;;;;16.64;45.65;102130.13;5045120;28;20198;-71
2023/05/27 08:46:16;;;;;;;6.87;1.90;;;;;;;16.70;46.23;102114.69;5027699;28;20221;-71
2023/05/27 08:48:44;;;;;;;4.43;1.90;;;;;;;16.77;49.78;102117.63;5027068;28;20285;-72
2023/05/27 08:51:13;;;;;;;5.73;1.57;;;;;;;16.83;45.34;102121.63;5028215;28;20290;-71
2023/05/27 08:53:40;;;;;;;4.07;2.17;;;;;;;16.91;44.55;102116.19;5043719;28;20654;-71
2023/05/27 08:56:09;;;;;;;4.53;2.00;;;;;;;16.96;45.60;102115.19;5030111;28;20197;-71
2023/05/27 08:58:41;;;;;;;8.07;2.00;;;;;;;17.04;45.54;102112.47;5030496;28;20253;-71
2023/05/27 09:01:10;;;;;;;4.60;1.97;;;;;;;17.08;46.31;102116.00;5044102;28;20228;-71
2023/05/27 09:03:40;;;;;;;4.77;1.90;;;;;;;17.12;45.48;102110.81;5026516;28;20241;-71
2023/05/27 09:06:06;;;;;;;6.23;1.70;;;;;;;17.15;46.29;102110.91;5047057;28;20263;-71
2023/05/27 09:08:34;;;;;;;5.07;1.60;;;;;;;17.21;47.11;102104.25;5027874;28;21265;-72
2023/05/27 09:11:01;;;;;;;4.47;1.63;;;;;;;17.31;47.08;102100.34;5041375;28;20222;-72
2023/05/27 09:13:28;;;;;;;4.03;1.80;;;;;;;17.40;45.86;102106.41;5045396;28;20205;-72
2023/05/27 09:16:02;;;;;;;4.63;1.67;;;;;;;17.50;45.65;102097.94;5044276;28;20206;-72
2023/05/27 09:18:29;;;;;;;5.93;1.67;;;;;;;17.58;43.97;102100.50;5044548;28;20199;-72
2023/05/27 09:20:58;;;;;;;4.60;1.80;;;;;;;17.61;43.69;102091.81;5048177;28;20222;-72
2023/05/27 09:23:25;;;;;;;4.37;1.73;;;;;;;17.70;43.97;102094.38;5043475;28;20202;-72
2023/05/27 09:25:52;;;;;;;3.17;1.40;;;;;;;17.74;43.08;102090.66;5030487;28;20207;-72
2023/05/27 09:28:22;;;;;;;5.27;2.00;;;;;;;17.76;44.68;102087.66;5043889;28;20430;-72
2023/05/27 09:30:52;;;;;;;5.70;1.90;;;;;;;17.81;42.41;102090.88;5045345;28;20192;-72
2023/05/27 09:33:23;;;;;;;4.77;2.07;;;;;;;17.86;44.40;102087.19;5042907;28;20456;-72
2023/05/27 09:35:50;;;;;;;4.23;1.83;;;;;;;17.94;45.04;102083.59;5043541;28;20211;-72
2023/05/27 09:38:16;;;;;;;3.60;1.87;;;;;;;18.05;44.03;102079.38;5045987;28;20198;-72
2023/05/27 09:40:47;;;;;;;6.27;1.60;;;;;;;18.14;42.49;102088.78;5046410;28;20242;-72
2023/05/27 09:43:16;;;;;;;7.70;1.90;;;;;;;18.19;40.86;102085.09;5045055;28;20294;-72
2023/05/27 09:45:43;;;;;;;4.10;1.77;;;;;;;18.24;41.89;102080.28;5043275;28;20183;-72
2023/05/27 09:48:12;;;;;;;6.03;1.83;;;;;;;18.25;43.09;102078.38;5041529;28;20198;-72
2023/05/27 09:50:39;;;;;;;4.13;2.00;;;;;;;18.25;41.95;102086.41;5042646;28;20198;-72
2023/05/27 09:53:06;;;;;;;2.30;1.57;;;;;;;18.28;42.67;102083.06;5045762;28;20381;-72
2023/05/27 09:55:33;;;;;;;4.23;1.63;;;;;;;18.31;39.57;102072.44;5025637;28;20203;-72
2023/05/27 09:58:00;;;;;;;3.07;1.90;;;;;;;18.32;38.38;102078.63;5044398;28;20215;-72
2023/05/27 10:00:29;;;;;;;3.47;1.80;;;;;;;18.33;38.91;102074.81;5041581;28;20195;-72
2023/05/27 10:03:00;;;;;;;4.20;2.00;;;;;;;18.37;39.28;102068.44;5044496;28;20218;-72
2023/05/27 10:05:27;;;;;;;4.57;1.70;;;;;;;18.40;39.96;102070.44;5048126;28;20574;-72
2023/05/27 10:07:54;;;;;;;9.77;2.20;;;;;;;18.46;39.84;102065.59;5049267;28;20219;-72
2023/05/27 10:10:22;;;;;;;4.70;2.00;;;;;;;18.50;40.95;102058.47;5046026;28;20698;-72
2023/05/27 10:12:53;;;;;;;6.30;1.97;;;;;;;18.50;38.84;102051.22;5044608;28;20218;-72
2023/05/27 10:15:24;;;;;;;3.47;1.50;;;;;;;18.59;39.25;102059.88;5028452;28;20674;-72
2023/05/27 10:17:54;;;;;;;3.47;1.40;;;;;;;18.65;40.75;102061.19;5042645;28;20542;-72
2023/05/27 10:20:32;;;;;;;3.00;1.60;;;;;;;18.74;39.39;102061.75;5041866;28;20223;-72
2023/05/27 10:23:12;;;;;;;5.57;1.80;;;;;;;18.83;39.56;102065.06;5043697;28;20966;-72
2023/05/27 10:25:39;;;;;;;9.50;1.83;;;;;;;18.94;38.83;102055.38;5041775;28;20199;-72
2023/05/27 10:28:05;;;;;;;3.57;1.93;;;;;;;19.03;38.10;102055.22;5041466;28;20223;-72
2023/05/27 10:30:43;;;;;;;3.77;1.47;;;;;;;19.07;36.54;102051.50;5042702;28;20219;-72
2023/05/27 10:33:11;;;;;;;4.87;1.77;;;;;;;19.12;36.92;102051.25;5042155;28;20211;-72
2023/05/27 10:35:40;;;;;;;3.50;1.73;;;;;;;19.18;38.54;102044.50;5041711;28;20230;-72
2023/05/27 10:38:16;;;;;;;7.07;2.10;;;;;;;19.28;40.12;102059.28;5045828;28;20195;-72
2023/05/27 10:40:44;;;;;;;5.90;1.83;;;;;;;19.31;38.95;102054.00;5028060;28;20671;-72
2023/05/27 10:43:16;;;;;;;6.63;2.00;;;;;;;19.39;37.82;102050.38;5039493;28;20205;-72
2023/05/27 10:45:42;;;;;;;3.57;1.53;;;;;;;19.44;36.65;102054.66;5043179;28;20196;-72
2023/05/27 10:48:18;;;;;;;3.17;1.73;;;;;;;19.51;39.53;102038.78;5041476;28;20207;-72
2023/05/27 10:50:51;;;;;;;8.80;1.87;;;;;;;19.57;39.57;102037.38;5039940;28;20199;-72
2023/05/27 10:53:19;;;;;;;4.07;1.37;;;;;;;19.61;37.12;102044.34;5042772;28;20203;-72
2023/05/27 10:55:48;;;;;;;3.07;1.50;;;;;;;19.64;37.51;102037.50;5039927;28;20572;-72
2023/05/27 10:58:16;;;;;;;3.60;1.33;;;;;;;19.72;37.09;102036.53;5045843;28;20183;-71
2023/05/27 11:00:46;;;;;;;4.23;1.50;;;;;;;19.81;37.83;102034.44;5043205;28;20461;-72
2023/05/27 11:03:21;;;;;;;4.33;1.50;;;;;;;19.88;37.39;102027.28;5043222;28;20752;-72
2023/05/27 11:05:47;;;;;;;3.37;1.80;;;;;;;19.91;36.71;102036.53;5038377;28;20195;-72
2023/05/27 11:08:14;;;;;;;4.07;1.50;;;;;;;19.94;36.89;102030.47;5041504;28;20239;-72
2023/05/27 11:10:41;;;;;;;4.37;1.73;;;;;;;19.99;34.52;102025.63;5040167;28;20203;-72
2023/05/27 11:13:08;;;;;;;4.10;1.50;;;;;;;20.02;34.76;102029.50;5038951;28;20200;-72
2023/05/27 11:15:34;;;;;;;6.47;2.60;;;;;;;20.02;35.11;102022.22;5041704;28;20270;-72
2023/05/27 11:18:01;;;;;;;4.13;1.77;;;;;;;20.08;34.81;102020.06;5041719;28;20533;-72
2023/05/27 11:20:36;;;;;;;5.17;1.80;;;;;;;20.08;34.54;102006.66;5041817;28;20290;-72
2023/05/27 11:23:02;;;;;;;2.03;1.30;;;;;;;20.16;36.76;102011.00;5041302;28;20209;-73
2023/05/27 11:25:29;;;;;;;4.00;1.90;;;;;;;20.21;36.61;102008.03;5043948;28;20199;-72
2023/05/27 11:27:55;;;;;;;6.00;1.70;;;;;;;20.26;36.86;102005.84;5039801;28;20240;-72
2023/05/27 11:30:25;;;;;;;3.80;1.90;;;;;;;20.30;36.67;102005.91;5036601;28;20574;-72
2023/05/27 11:32:51;;;;;;;4.83;1.67;;;;;;;20.29;35.79;102010.50;5036400;28;20211;-72
2023/05/27 11:35:18;;;;;;;2.33;1.67;;;;;;;20.36;36.22;102007.94;5039565;28;20230;-72
2023/05/27 11:37:53;;;;;;;3.80;1.70;;;;;;;20.39;34.81;101991.13;5038446;28;20197;-72